You are not logged in, Click here to log in
ICAO: RJTT Country: 日本東京都大田區
Latitude: 35.5494 Longitude: 139.78
Total Arrivals: 104 Total Departures: 111
Latest Arrival: BR192 (RCSS-RJTT)Jason. Li Latest Departure: JL255 (RJTT-RJOA)Jason. Li
Scenery: http://forums.x-plane.org/index.php?/files/file/37241-rjtt-tokyo-haneda-airport/
METAR : RJTT 241130Z 18012KT CAVOK 22/18 Q1012 NOSIG

東京国際空港(羽田)HND